Nearby METAR Reports

 

EBAW - Antwerp/Deurne, Belgium
Distance from station: ZZO 9km
Ververst: 15/05/2021 16:20
Meestal bewolkt
Meestal bewolkt
 Wind van ZZO
Wind: ZZO 15 km/h
Temperatuur: 11°C
Dauwpunt: 10°C
Vochtigheid: 94%
Barometer: 1001 hPa
Clouds: Meestal bewolkt
Visibility: 10 km
Cloud details: Few Clouds 244 m
Meestal bewolkt 427 m
Meestal bewolkt 610 m
2021/05/15 14:20 EBAW 151420Z 15008KT 9999 FEW008 BKN014 BKN020 11/10 Q1001 TEMPO FM1530 VRB15G25KT 3500 SHRA SCT014 BKN020CB
EHWO - Woensdrecht Rnla, Netherlands
Distance from station: NNW 20km
Ververst: 15/05/2021 16:25
Drizzle, Meestal bewolkt
Drizzle, Meestal bewolkt
 Wind van ZZO
Wind: ZZO 9 km/h
Temperatuur: 12°C
Dauwpunt: 9°C
Vochtigheid: 82%
Barometer: 1000 hPa
Overzicht: Drizzle
Clouds: Meestal bewolkt
Visibility: 10 km
Cloud details: Few Clouds 213 m
Gedeeltelijk bewolkt 457 m
Meestal bewolkt 579 m
2021/05/15 14:25 EHWO 151425Z AUTO 16005KT 100V220 9999 DZ FEW007 SCT015 BKN019 12/09 Q1000 WHT
 
EBBR - Brussels Nationa, Belgium
Distance from station: Z 43km
Ververst: 15/05/2021 16:20
Lichte regen, Showers, Gedeeltelijk bewolkt
Lichte regen, Showers, Gedeeltelijk bewolkt
 Wind van Z
Wind: Z 9 km/h
Temperatuur: 12°C
Dauwpunt: 10°C
Vochtigheid: 88%
Barometer: 1001 hPa
Overzicht: Lichte regen, Showers
Clouds: Gedeeltelijk bewolkt
Visibility: 10 km
Cloud details: Few Clouds 366 m
Gedeeltelijk bewolkt 610 m
Gedeeltelijk bewolkt 1372 m
2021/05/15 14:20 EBBR 151420Z 17005KT 140V210 9999 -SHRA FEW012 SCT020 SCT045 12/10 Q1001 TEMPO FM1500 VRB15G25KT 3000 SHRA BKN014CB
EHGR - Gilze-Rijen Rnla, Netherlands
Distance from station: NO 47km
Ververst: 15/05/2021 16:25
Meestal bewolkt
Meestal bewolkt
 Wind van Z
Wind: Z 20 km/h
Temperatuur: 12°C
Dauwpunt: 9°C
Vochtigheid: 82%
Barometer: 1001 hPa
Clouds: Meestal bewolkt
Visibility: 10 km
Cloud details: Few Clouds 427 m
Gedeeltelijk bewolkt 488 m
Meestal bewolkt 1311 m
2021/05/15 14:25 EHGR 151425Z AUTO 17011KT 120V230 9999 FEW014 SCT016 BKN043 12/09 Q1001 WHT
 
EBDT - Schaffen, Belgium
Distance from station: OZO 54km
Ververst: 15/05/2021 15:55
Lichte regen, Zwaar bewolkt
Lichte regen, Zwaar bewolkt
 Wind van Z
Wind: Z 11 km/h
Temperatuur: 12°C
Dauwpunt: 9°C
Vochtigheid: 82%
Barometer: 1001 hPa
Overzicht: Lichte regen
Clouds: Zwaar bewolkt
Visibility: 10 km
Cloud details: Zwaar bewolkt 792 m
2021/05/15 13:55 EBDT 151355Z AUTO 18006KT 9999 -RA OVC026/// 12/09 Q1001 BLU
EHFS - Vlissingen, Netherlands
Distance from station: WNW 60km
Ververst: 15/05/2021 15:55
Zwaar bewolkt
Zwaar bewolkt
 Wind van ZZO
Wind: ZZO 17 km/h
Temperatuur: 11°C
Dauwpunt: 9°C
Vochtigheid: 88%
Barometer: 1000 hPa
Clouds: Zwaar bewolkt
Visibility: 9 km
Cloud details: Few Clouds 183 m
Meestal bewolkt 427 m
Zwaar bewolkt 488 m
2021/05/15 13:55 EHFS 151355Z AUTO 15009KT 9000 FEW006/// BKN014/// OVC016/// 11/09 Q1000
 
EBBE - Beauvechain (baf, Belgium
Distance from station: ZZO 64km
Ververst: 15/05/2021 16:20
Lichte regen, Meestal bewolkt
Lichte regen, Meestal bewolkt
 Wind van Z
Wind: Z 19 km/h
Temperatuur: 12°C
Dauwpunt: 9°C
Vochtigheid: 82%
Barometer: 1001 hPa
Overzicht: Lichte regen
Clouds: Meestal bewolkt
Visibility: 10 km
Cloud details: Few Clouds 488 m
Gedeeltelijk bewolkt 701 m
Meestal bewolkt 975 m
2021/05/15 14:20 EBBE 151420Z AUTO 19010KT 9999 -RA FEW016/// SCT023/// BKN032/// 12/09 Q1001 WHT
EHEH - Eindhoven Rnlafb, Netherlands
Distance from station: ONO 69km
Ververst: 15/05/2021 15:55
Zwaar bewolkt
Zwaar bewolkt
 Wind van Z
Wind: Z 20 km/h
Temperatuur: 13°C
Dauwpunt: 7°C
Vochtigheid: 67%
Barometer: 1001 hPa
Clouds: Zwaar bewolkt
Visibility: 10 km
Cloud details: Few Clouds 975 m
Meestal bewolkt 1097 m
Zwaar bewolkt 1250 m
2021/05/15 13:55 EHEH 151355Z AUTO 18011KT 160V220 9999 FEW032 BKN036 OVC041 13/07 Q1001 REDZ BLU TEMPO 4500 -SHRA -RA FEW010 SCT018CB BKN030
 
EBBL - Kleine-Brogel(Ba, Belgium
Distance from station: O 74km
Ververst: 13/05/2021 07:55
NOT Current
Zwaar bewolkt
Zwaar bewolkt
 Wind van varies
Wind: varies 4 km/h
Temperatuur: 10°C
Dauwpunt: 9°C
Vochtigheid: 94%
Barometer: 1007 hPa
Clouds: Zwaar bewolkt
Visibility: 10 km
Cloud details: Zwaar bewolkt 3048 m
2021/05/13 05:55 EBBL 130555Z AUTO VRB02KT 9999 OVC100/// 10/09 Q1007 BLU
EHRD - Rotterdam Airpor, Netherlands
Distance from station: N 75km
Ververst: 15/05/2021 15:55
Meestal bewolkt
Meestal bewolkt
 Wind van ZZO
Wind: ZZO 9 km/h
Temperatuur: 13°C
Dauwpunt: 10°C
Vochtigheid: 82%
Barometer: 1001 hPa
Clouds: Meestal bewolkt
Visibility: 10 km
Cloud details: Few Clouds 457 m
Meestal bewolkt 1433 m
2021/05/15 13:55 EHRD 151355Z AUTO 16005KT 130V200 9999 FEW015CB BKN047 13/10 Q1001 NOSIG
 
EHSC - Goeree Le Sea, Netherlands
Distance from station: NW 89km
Ververst: 15/05/2021 15:55

 Wind van ZZW
Wind: ZZW 9 km/h
Temperatuur: 11°C
Dauwpunt: 8°C
Vochtigheid: 82%
Barometer: 1001 hPa
Visibility: 10 km
2021/05/15 13:55 EHSC 151355Z AUTO 20005KT 9999 ///////// 11/08 Q1001 W10/H8
EBCI - Charleroi/Gossel, Belgium
Distance from station: Z 90km
Ververst: 15/05/2021 16:20
Meestal bewolkt
Meestal bewolkt
 Wind van ZZW
Wind: ZZW 17 km/h
Temperatuur: 13°C
Dauwpunt: 8°C
Vochtigheid: 72%
Barometer: 1001 hPa
Clouds: Meestal bewolkt
Visibility: 10 km
Cloud details: Few Clouds 610 m
Meestal bewolkt 1372 m
2021/05/15 14:20 EBCI 151420Z 21009KT 9999 FEW020 BKN045 13/08 Q1001 NOSIG
 
EBCV - Chievres Ab, Belgium
Distance from station: ZZW 90km
Ververst: 15/05/2021 16:20
Lichte regen, Zwaar bewolkt
Lichte regen, Zwaar bewolkt
 Wind van W
Wind: W 17 km/h
Temperatuur: 10°C
Gevoelstemp.: 8°C
Dauwpunt: 9°C
Vochtigheid: 94%
Barometer: 1001 hPa
Overzicht: Lichte regen
Clouds: Zwaar bewolkt
Visibility: 10 km
Cloud details: Zwaar bewolkt 457 m
2021/05/15 14:20 EBCV 151420Z AUTO 26009KT 9999 -RA OVC015/// 10/09 Q1001 WHT
EHVK - Volkel Rnlafb, Netherlands
Distance from station: ONO 97km
Ververst: 15/05/2021 16:25
Zwaar bewolkt
Zwaar bewolkt
 Wind van ZZW
Wind: ZZW 19 km/h
Temperatuur: 14°C
Dauwpunt: 8°C
Vochtigheid: 67%
Barometer: 1001 hPa
Clouds: Zwaar bewolkt
Visibility: 10 km
Cloud details: Few Clouds 914 m
Gedeeltelijk bewolkt 1067 m
Zwaar bewolkt 1524 m
2021/05/15 14:25 EHVK 151425Z AUTO 21010KT 170V240 9999 FEW030 SCT035 OVC050 14/08 Q1001 BLU
 
EBLG - Bierset/Liege (c, Belgium
Distance from station: ZO 102km
Ververst: 15/05/2021 16:20
Meestal bewolkt
Meestal bewolkt
 Wind van Z
Wind: Z 20 km/h
Temperatuur: 13°C
Dauwpunt: 8°C
Vochtigheid: 72%
Barometer: 1001 hPa
Clouds: Meestal bewolkt
Visibility: 10 km
Cloud details: Gedeeltelijk bewolkt 610 m
Meestal bewolkt 1128 m
2021/05/15 14:20 EBLG 151420Z 18011KT 150V210 9999 SCT020 BKN037 13/08 Q1001 NOSIG
EHBK - Zuid-Limburg/Bee, Netherlands
Distance from station: OZO 102km
Ververst: 15/05/2021 15:55
Zwaar bewolkt
Zwaar bewolkt
 Wind van Z
Wind: Z 15 km/h
Temperatuur: 13°C
Dauwpunt: 7°C
Vochtigheid: 67%
Barometer: 1002 hPa
Clouds: Zwaar bewolkt
Visibility: 10 km
Cloud details: Gedeeltelijk bewolkt 853 m
Zwaar bewolkt 975 m
2021/05/15 13:55 EHBK 151355Z AUTO 19008KT 160V230 9999 SCT028 OVC032 13/07 Q1002 TEMPO 7000 -SHRA FEW020CB
 
EBOS - Oostende Airport, Belgium
Distance from station: W 108km
Ververst: 15/05/2021 16:20
Meestal bewolkt
Meestal bewolkt
 Wind van Z
Wind: Z 9 km/h
Temperatuur: 12°C
Dauwpunt: 9°C
Vochtigheid: 82%
Barometer: 1000 hPa
Clouds: Meestal bewolkt
Visibility: 10 km
Cloud details: Gedeeltelijk bewolkt 427 m
Meestal bewolkt 610 m
2021/05/15 14:20 EBOS 151420Z 17005KT 130V230 9999 SCT014 BKN020 12/09 Q1000 TEMPO 4000 SHRA BKN014 BECMG 25015KT
EHSA - Euro Platform, Netherlands
Distance from station: NW 112km
Ververst: 15/05/2021 15:55

 Wind van ZO
Wind: ZO 13 km/h
Temperatuur: 10°C
Gevoelstemp.: 8°C
Dauwpunt: 8°C
Vochtigheid: 88%
Barometer: 1000 hPa
Visibility: 9 km
2021/05/15 13:55 EHSA 151355Z AUTO 13007KT 9000 ///////// 10/08 Q1000 W10/H8
 
EHAM - Amsterdam/Schiph, Netherlands
Distance from station: NNO 118km
Ververst: 15/05/2021 15:55
Lichte regen, Meestal bewolkt
Lichte regen, Meestal bewolkt
 Wind van ZO
Wind: ZO 9 km/h
Temperatuur: 13°C
Dauwpunt: 8°C
Vochtigheid: 72%
Barometer: 1001 hPa
Overzicht: Lichte regen
Clouds: Meestal bewolkt
Visibility: 9 km
Cloud details: Few Clouds 762 m
Meestal bewolkt 1219 m
2021/05/15 13:55 EHAM 151355Z 14005KT 100V190 9000 -RA FEW025 BKN040 13/08 Q1001 TEMPO 5000 SHRA SCT025CB
ETNG - Geilenkirchen(Na, Germany
Distance from station: OZO 118km
Ververst: 14/05/2021 19:50
NOT Current
Light thunderstorm, Regen, Meestal bewolkt
Light thunderstorm, Regen, Meestal bewolkt
 Wind van ZZO
Wind: ZZO 13 km/h
Temperatuur: 14°C
Dauwpunt: 8°C
Vochtigheid: 67%
Barometer: 1007 hPa
Overzicht: Light thunderstorm, Regen
Clouds: Meestal bewolkt
Visibility: 10 km
Cloud details: Gedeeltelijk bewolkt 610 m
Meestal bewolkt 1524 m
2021/05/14 17:50 ETNG 141750Z 16007KT 9999 -TSRA SCT020CB BKN050 14/08 Q1007 BECMG NSW